createdAt,value
2019-02-20T00:00:23.300Z,0.00
2019-02-20T00:01:23.290Z,0.00
2019-02-20T00:02:23.263Z,0.00
2019-02-20T00:03:23.228Z,0.00
2019-02-20T00:04:23.209Z,0.00
2019-02-20T00:05:23.186Z,0.00
2019-02-20T00:06:24.742Z,0.00
2019-02-20T00:07:23.165Z,0.00
2019-02-20T00:08:23.124Z,0.00
2019-02-20T00:09:25.065Z,0.00
2019-02-20T00:10:23.083Z,0.00
2019-02-20T00:11:23.070Z,0.00
2019-02-20T00:12:23.052Z,0.00
2019-02-20T00:13:23.028Z,0.00
2019-02-20T00:14:22.991Z,0.00
2019-02-20T00:15:23.001Z,0.00
2019-02-20T00:16:23.740Z,0.00
2019-02-20T00:17:22.939Z,0.00
2019-02-20T00:18:22.908Z,0.00
2019-02-20T00:19:22.923Z,0.00
2019-02-20T00:20:22.865Z,0.00
2019-02-20T00:21:22.845Z,0.00
2019-02-20T00:22:22.824Z,0.00
2019-02-20T00:23:22.798Z,0.00
2019-02-20T00:24:22.805Z,0.00
2019-02-20T00:25:22.755Z,0.00
2019-02-20T00:26:23.754Z,0.00
2019-02-20T00:27:22.720Z,0.00
2019-02-20T00:28:23.314Z,0.00
2019-02-20T00:29:22.677Z,0.00
2019-02-20T00:30:22.712Z,0.00
2019-02-20T00:31:22.626Z,0.00
2019-02-20T00:32:22.611Z,0.00
2019-02-20T00:33:22.601Z,0.00
2019-02-20T00:34:22.571Z,0.00
2019-02-20T00:35:22.541Z,0.00
2019-02-20T00:36:22.541Z,0.00
2019-02-20T00:37:22.494Z,0.00
2019-02-20T00:38:22.502Z,0.00
2019-02-20T00:39:22.472Z,0.00
2019-02-20T00:40:22.464Z,0.00
2019-02-20T00:41:22.416Z,0.00
2019-02-20T00:42:22.401Z,0.00
2019-02-20T00:43:22.375Z,0.00
2019-02-20T00:44:22.367Z,0.00
2019-02-20T00:45:22.328Z,0.00
2019-02-20T00:46:22.319Z,0.00
2019-02-20T00:47:22.284Z,0.00
2019-02-20T00:48:22.263Z,0.00
2019-02-20T00:49:22.239Z,0.00
2019-02-20T00:50:22.224Z,0.00
2019-02-20T00:51:22.215Z,0.00
2019-02-20T00:52:22.197Z,0.00
2019-02-20T00:53:24.817Z,0.00
2019-02-20T00:54:22.134Z,0.00
2019-02-20T00:55:22.109Z,0.00
2019-02-20T00:56:22.090Z,0.00
2019-02-20T00:57:22.098Z,0.00
2019-02-20T00:58:22.745Z,0.00
2019-02-20T00:59:22.031Z,0.00
2019-02-20T01:00:22.015Z,0.00
2019-02-20T01:01:21.981Z,0.00
2019-02-20T01:02:22.751Z,0.00
2019-02-20T01:03:21.956Z,0.00
2019-02-20T01:04:21.935Z,0.00
2019-02-20T01:05:21.897Z,0.00
2019-02-20T01:06:21.870Z,0.00
2019-02-20T01:07:21.875Z,0.00
2019-02-20T01:08:21.880Z,0.00
2019-02-20T01:09:21.807Z,0.00
2019-02-20T01:10:21.785Z,0.00
2019-02-20T01:11:21.763Z,0.00
2019-02-20T01:12:21.738Z,0.00
2019-02-20T01:13:21.740Z,0.00
2019-02-20T01:14:21.701Z,0.00
2019-02-20T01:15:21.677Z,0.00
2019-02-20T01:16:21.670Z,0.00
2019-02-20T01:17:21.635Z,0.00
2019-02-20T01:18:21.621Z,0.00
2019-02-20T01:19:21.609Z,0.00
2019-02-20T01:20:21.572Z,0.00
2019-02-20T01:21:22.263Z,0.00
2019-02-20T01:22:21.530Z,0.00
2019-02-20T01:23:21.503Z,0.00
2019-02-20T01:24:21.500Z,0.00
2019-02-20T01:25:21.479Z,0.00
2019-02-20T01:26:21.442Z,0.00
2019-02-20T01:27:21.416Z,0.00
2019-02-20T01:28:21.405Z,0.00
2019-02-20T01:29:22.249Z,0.00
2019-02-20T01:30:21.353Z,0.00
2019-02-20T01:31:22.249Z,0.00
2019-02-20T01:32:21.313Z,0.00
2019-02-20T01:33:21.316Z,0.00
2019-02-20T01:34:21.269Z,0.00
2019-02-20T01:35:21.249Z,0.00
2019-02-20T01:36:21.226Z,0.00
2019-02-20T01:37:21.221Z,0.00
2019-02-20T01:38:21.182Z,0.00
2019-02-20T01:39:21.160Z,0.00
2019-02-20T01:40:21.137Z,0.00
2019-02-20T01:41:21.134Z,0.00
2019-02-20T01:42:21.090Z,0.00
2019-02-20T01:43:21.828Z,0.00
2019-02-20T01:44:21.053Z,0.00
2019-02-20T01:45:21.071Z,0.00
2019-02-20T01:46:21.015Z,0.00
2019-02-20T01:47:20.989Z,0.00
2019-02-20T01:48:20.982Z,0.00
2019-02-20T01:49:20.943Z,0.00
2019-02-20T01:50:21.069Z,0.00
2019-02-20T01:51:20.913Z,0.00
2019-02-20T01:52:20.891Z,0.00
2019-02-20T01:53:20.853Z,0.00
2019-02-20T01:54:20.830Z,0.00
2019-02-20T01:55:20.811Z,0.00
2019-02-20T01:56:20.808Z,0.00
2019-02-20T01:57:21.252Z,0.00
2019-02-20T01:58:20.746Z,0.00
2019-02-20T01:59:20.731Z,0.00
2019-02-20T02:00:20.705Z,0.00
2019-02-20T02:01:20.701Z,0.00
2019-02-20T02:02:20.805Z,0.00
2019-02-20T02:03:20.657Z,0.00
2019-02-20T02:04:20.614Z,0.00
2019-02-20T02:05:20.591Z,0.00
2019-02-20T02:06:20.591Z,0.00
2019-02-20T02:07:20.559Z,0.00
2019-02-20T02:08:20.590Z,0.00
2019-02-20T02:09:20.527Z,0.00
2019-02-20T02:10:20.483Z,0.00
2019-02-20T02:11:20.463Z,0.00
2019-02-20T02:12:20.441Z,0.00
2019-02-20T02:13:20.441Z,0.00
2019-02-20T02:14:20.415Z,0.00
2019-02-20T02:15:20.846Z,0.00
2019-02-20T02:16:20.357Z,0.00
2019-02-20T02:17:20.334Z,0.00
2019-02-20T02:18:20.316Z,0.00
2019-02-20T02:19:20.315Z,0.00
2019-02-20T02:20:20.266Z,0.00
2019-02-20T02:21:20.258Z,0.00
2019-02-20T02:22:20.239Z,0.00
2019-02-20T02:23:20.243Z,0.00
2019-02-20T02:24:20.205Z,0.00
2019-02-20T02:25:20.165Z,0.00
2019-02-20T02:26:20.136Z,0.00
2019-02-20T02:27:20.121Z,0.00
2019-02-20T02:28:20.096Z,0.00
2019-02-20T02:29:20.076Z,0.00
2019-02-20T02:30:20.079Z,0.00
2019-02-20T02:31:20.036Z,0.00
2019-02-20T02:32:20.025Z,0.00
2019-02-20T02:33:20.008Z,0.00
2019-02-20T02:34:19.963Z,0.00
2019-02-20T02:35:19.941Z,0.00
2019-02-20T02:36:19.941Z,0.00
2019-02-20T02:37:19.902Z,0.00
2019-02-20T02:38:19.901Z,0.00
2019-02-20T02:39:21.756Z,0.00
2019-02-20T02:40:19.855Z,0.00
2019-02-20T02:41:19.805Z,0.00
2019-02-20T02:42:19.809Z,0.00
2019-02-20T02:43:19.774Z,0.00
2019-02-20T02:44:19.757Z,0.00
2019-02-20T02:45:19.728Z,0.00
2019-02-20T02:46:19.710Z,0.00
2019-02-20T02:47:19.700Z,0.00
2019-02-20T02:48:19.662Z,0.00
2019-02-20T02:49:19.641Z,0.00
2019-02-20T02:50:21.257Z,0.00
2019-02-20T02:51:19.612Z,0.00
2019-02-20T02:52:19.575Z,0.00
2019-02-20T02:53:30.082Z,0.00
2019-02-20T02:54:19.532Z,0.00
2019-02-20T02:55:19.538Z,0.00
2019-02-20T02:56:19.490Z,0.00
2019-02-20T02:57:19.467Z,0.00
2019-02-20T02:58:19.450Z,0.00
2019-02-20T02:59:20.278Z,0.00
2019-02-20T03:00:19.400Z,0.00
2019-02-20T03:01:19.400Z,0.00
2019-02-20T03:02:19.357Z,0.00
2019-02-20T03:03:19.336Z,0.00
2019-02-20T03:04:19.322Z,0.00
2019-02-20T03:05:19.295Z,0.00
2019-02-20T03:06:19.290Z,0.00
2019-02-20T03:07:19.248Z,0.00
2019-02-20T03:08:19.242Z,0.00
2019-02-20T03:09:19.201Z,0.00
2019-02-20T03:10:19.188Z,0.00
2019-02-20T03:11:19.163Z,0.00
2019-02-20T03:12:20.765Z,0.00
2019-02-20T03:13:19.143Z,0.00
2019-02-20T03:14:19.095Z,0.00
2019-02-20T03:15:19.076Z,0.00
2019-02-20T03:16:19.052Z,0.00
2019-02-20T03:17:19.033Z,0.00
2019-02-20T03:18:19.005Z,0.00
2019-02-20T03:19:19.002Z,0.00
2019-02-20T03:20:18.964Z,0.00
2019-02-20T03:21:18.944Z,0.00
2019-02-20T03:22:18.934Z,0.00
2019-02-20T03:23:18.919Z,0.00
2019-02-20T03:24:18.879Z,0.00
2019-02-20T03:25:18.885Z,0.00
2019-02-20T03:26:18.851Z,0.00
2019-02-20T03:27:18.817Z,0.00
2019-02-20T03:28:18.786Z,0.00
2019-02-20T03:29:18.799Z,0.00
2019-02-20T03:30:18.746Z,0.00
2019-02-20T03:31:18.724Z,0.00
2019-02-20T03:32:18.715Z,0.00
2019-02-20T03:33:18.694Z,0.00
2019-02-20T03:34:18.668Z,0.00
2019-02-20T03:35:18.659Z,0.00
2019-02-20T03:36:19.262Z,0.00
2019-02-20T03:37:18.590Z,0.00
2019-02-20T03:38:29.672Z,0.00
2019-02-20T03:39:18.554Z,0.00
2019-02-20T03:40:18.526Z,0.00
2019-02-20T03:41:18.528Z,0.00
2019-02-20T03:42:18.484Z,0.00
2019-02-20T03:43:18.460Z,0.00
2019-02-20T03:44:18.440Z,0.00
2019-02-20T03:45:18.415Z,0.00
2019-02-20T03:46:18.403Z,0.00
2019-02-20T03:47:20.168Z,0.00
2019-02-20T03:48:18.359Z,0.00
2019-02-20T03:49:19.265Z,0.00
2019-02-20T03:50:19.264Z,0.00
2019-02-20T03:51:18.804Z,0.00
2019-02-20T03:52:18.295Z,0.00
2019-02-20T03:53:18.847Z,0.00
2019-02-20T03:54:18.221Z,0.00
2019-02-20T03:55:18.198Z,0.00
2019-02-20T03:56:19.264Z,0.00
2019-02-20T03:57:18.171Z,0.00
2019-02-20T03:58:18.147Z,0.00
2019-02-20T03:59:18.128Z,0.00
2019-02-20T04:00:18.089Z,0.00
2019-02-20T04:01:18.094Z,0.00
2019-02-20T04:02:18.044Z,0.00
2019-02-20T04:03:18.043Z,0.00
2019-02-20T04:04:18.011Z,0.00
2019-02-20T04:05:17.982Z,0.00
2019-02-20T04:06:17.963Z,0.00
2019-02-20T04:07:17.966Z,0.00
2019-02-20T04:08:17.926Z,0.00
2019-02-20T04:09:17.895Z,0.00
2019-02-20T04:10:17.875Z,0.00
2019-02-20T04:11:17.860Z,0.00
2019-02-20T04:12:17.824Z,0.00
2019-02-20T04:13:17.823Z,0.00
2019-02-20T04:14:18.267Z,0.00
2019-02-20T04:15:17.793Z,0.00
2019-02-20T04:16:17.739Z,0.00
2019-02-20T04:17:17.718Z,0.00
2019-02-20T04:18:17.702Z,0.00
2019-02-20T04:19:17.679Z,0.00
2019-02-20T04:20:17.650Z,0.00
2019-02-20T04:21:17.653Z,0.00
2019-02-20T04:22:17.609Z,0.00
2019-02-20T04:23:17.585Z,0.00
2019-02-20T04:24:17.606Z,0.00
2019-02-20T04:25:18.271Z,0.00
2019-02-20T04:26:17.525Z,0.00
2019-02-20T04:27:17.505Z,0.00
2019-02-20T04:28:17.489Z,0.00
2019-02-20T04:29:17.460Z,0.00
2019-02-20T04:30:18.351Z,0.00
2019-02-20T04:31:17.416Z,0.00
2019-02-20T04:32:17.395Z,0.00
2019-02-20T04:33:17.369Z,0.00
2019-02-20T04:34:17.356Z,0.00
2019-02-20T04:35:17.347Z,0.00
2019-02-20T04:36:17.311Z,0.00
2019-02-20T04:37:17.286Z,0.00
2019-02-20T04:38:17.262Z,0.00
2019-02-20T04:39:17.242Z,0.00
2019-02-20T04:40:18.269Z,0.00
2019-02-20T04:41:17.222Z,0.00
2019-02-20T04:42:17.179Z,0.00
2019-02-20T04:43:17.157Z,0.00
2019-02-20T04:44:17.135Z,0.00
2019-02-20T04:45:17.115Z,0.00
2019-02-20T04:46:17.098Z,0.00
2019-02-20T04:47:17.085Z,0.00
2019-02-20T04:48:17.052Z,0.00
2019-02-20T04:49:17.026Z,0.00
2019-02-20T04:50:17.012Z,0.00
2019-02-20T04:51:18.771Z,0.00
2019-02-20T04:52:16.976Z,0.00
2019-02-20T04:53:17.818Z,0.00
2019-02-20T04:54:16.945Z,0.00
2019-02-20T04:55:16.941Z,0.00
2019-02-20T04:56:16.881Z,0.00
2019-02-20T04:57:16.854Z,0.00
2019-02-20T04:58:16.834Z,0.00
2019-02-20T04:59:16.826Z,0.00
2019-02-20T05:00:16.792Z,0.00
2019-02-20T05:01:16.769Z,0.00
2019-02-20T05:02:16.766Z,0.00
2019-02-20T05:03:16.722Z,0.00
2019-02-20T05:04:16.700Z,0.00
2019-02-20T05:05:16.678Z,0.00
2019-02-20T05:06:16.668Z,0.00
2019-02-20T05:07:16.654Z,0.00
2019-02-20T05:08:16.612Z,0.00
2019-02-20T05:09:16.594Z,0.00
2019-02-20T05:10:16.589Z,0.00
2019-02-20T05:11:16.554Z,0.00
2019-02-20T05:12:16.545Z,0.00
2019-02-20T05:13:16.509Z,0.00
2019-02-20T05:14:16.517Z,0.00
2019-02-20T05:15:16.465Z,0.00
2019-02-20T05:16:16.442Z,0.00
2019-02-20T05:17:16.431Z,0.00
2019-02-20T05:18:16.396Z,0.00
2019-02-20T05:19:16.377Z,0.00
2019-02-20T05:20:16.375Z,0.00
2019-02-20T05:21:16.334Z,0.00
2019-02-20T05:22:16.314Z,0.00
2019-02-20T05:23:16.304Z,0.00
2019-02-20T05:24:24.101Z,0.00
2019-02-20T05:25:16.263Z,0.00
2019-02-20T05:26:16.242Z,0.00
2019-02-20T05:27:16.209Z,0.00
2019-02-20T05:28:16.188Z,0.00
2019-02-20T05:29:16.162Z,0.00
2019-02-20T05:30:16.148Z,0.00
2019-02-20T05:31:16.660Z,0.00
2019-02-20T05:32:16.098Z,0.00
2019-02-20T05:33:16.077Z,0.00
2019-02-20T05:34:16.052Z,0.00
2019-02-20T05:35:16.032Z,0.00
2019-02-20T05:36:16.021Z,0.00
2019-02-20T05:37:16.005Z,0.00
2019-02-20T05:38:15.963Z,0.00
2019-02-20T05:39:15.943Z,0.00
2019-02-20T05:40:15.921Z,0.00
2019-02-20T05:41:15.898Z,0.00
2019-02-20T05:42:15.871Z,0.00
2019-02-20T05:43:15.868Z,0.00
2019-02-20T05:44:15.833Z,0.00
2019-02-20T05:45:15.810Z,0.00
2019-02-20T05:46:15.788Z,0.00
2019-02-20T05:47:15.786Z,0.00
2019-02-20T05:48:15.757Z,0.00
2019-02-20T05:49:15.737Z,0.00
2019-02-20T05:50:15.704Z,0.00
2019-02-20T05:51:15.686Z,0.00
2019-02-20T05:52:15.675Z,0.00
2019-02-20T05:53:15.661Z,0.00
2019-02-20T05:54:15.608Z,0.00
2019-02-20T05:55:15.590Z,0.00
2019-02-20T05:56:15.570Z,0.00
2019-02-20T05:57:15.546Z,0.00
2019-02-20T05:58:15.541Z,0.00
2019-02-20T05:59:15.498Z,0.00
2019-02-20T06:00:15.482Z,0.00
2019-02-20T06:01:15.458Z,0.00
2019-02-20T06:02:15.452Z,0.00
2019-02-20T06:03:15.416Z,0.00
2019-02-20T06:04:15.411Z,0.00
2019-02-20T06:05:15.375Z,0.00
2019-02-20T06:06:15.349Z,0.00
2019-02-20T06:07:15.353Z,0.00
2019-02-20T06:08:15.305Z,0.00
2019-02-20T06:09:15.314Z,0.00
2019-02-20T06:10:15.267Z,0.00
2019-02-20T06:11:15.710Z,0.00
2019-02-20T06:12:15.219Z,0.00
2019-02-20T06:13:15.201Z,4.00
2019-02-20T06:14:15.173Z,4.00
2019-02-20T06:15:15.188Z,4.00
2019-02-20T06:16:15.131Z,0.00
2019-02-20T06:17:15.111Z,4.00
2019-02-20T06:18:15.083Z,8.00
2019-02-20T06:19:15.063Z,4.00
2019-02-20T06:20:15.060Z,8.00
2019-02-20T06:21:16.389Z,8.00
2019-02-20T06:22:15.010Z,8.00
2019-02-20T06:23:14.974Z,12.00
2019-02-20T06:24:14.983Z,12.00
2019-02-20T06:25:14.928Z,12.00
2019-02-20T06:26:14.921Z,16.00
2019-02-20T06:27:14.889Z,16.00
2019-02-20T06:28:14.866Z,24.00
2019-02-20T06:29:14.844Z,24.00
2019-02-20T06:30:14.837Z,28.00
2019-02-20T06:31:14.806Z,28.00
2019-02-20T06:32:14.783Z,32.00
2019-02-20T06:33:14.897Z,36.00
2019-02-20T06:34:14.731Z,44.00
2019-02-20T06:35:14.741Z,48.00
2019-02-20T06:36:14.697Z,56.00
2019-02-20T06:37:14.669Z,60.00
2019-02-20T06:38:14.645Z,60.00
2019-02-20T06:39:14.622Z,68.00
2019-02-20T06:40:14.617Z,72.00
2019-02-20T06:41:14.579Z,76.00
2019-02-20T06:42:14.574Z,84.00
2019-02-20T06:43:14.538Z,88.00
2019-02-20T06:44:14.516Z,96.00
2019-02-20T06:45:14.495Z,108.00
2019-02-20T06:46:14.495Z,124.00
2019-02-20T06:47:14.461Z,140.00
2019-02-20T06:48:14.433Z,160.00
2019-02-20T06:49:14.406Z,172.00
2019-02-20T06:50:14.389Z,196.00
2019-02-20T06:51:14.392Z,212.00
2019-02-20T06:52:14.359Z,224.00
2019-02-20T06:53:14.319Z,240.00
2019-02-20T06:54:14.296Z,260.00
2019-02-20T06:55:14.297Z,264.00
2019-02-20T06:56:14.257Z,276.00
2019-02-20T06:57:14.791Z,292.00
2019-02-20T06:58:14.227Z,312.00
2019-02-20T06:59:14.786Z,336.00
2019-02-20T07:00:14.168Z,372.00
2019-02-20T07:01:14.147Z,380.00
2019-02-20T07:02:14.133Z,412.00
2019-02-20T07:03:14.121Z,436.00
2019-02-20T07:04:14.084Z,464.00
2019-02-20T07:05:14.061Z,512.00
2019-02-20T07:06:14.044Z,580.00
2019-02-20T07:07:14.020Z,624.00
2019-02-20T07:08:14.014Z,648.00
2019-02-20T07:09:15.266Z,688.00
2019-02-20T07:10:13.951Z,744.00
2019-02-20T07:11:13.929Z,788.00
2019-02-20T07:12:13.918Z,812.00
2019-02-20T07:13:13.918Z,816.00
2019-02-20T07:14:13.863Z,824.00
2019-02-20T07:15:13.847Z,840.00
2019-02-20T07:16:13.821Z,848.00
2019-02-20T07:17:13.803Z,828.00
2019-02-20T07:18:13.782Z,812.00
2019-02-20T07:19:13.796Z,808.00
2019-02-20T07:20:13.737Z,812.00
2019-02-20T07:21:13.948Z,824.00
2019-02-20T07:22:13.696Z,820.00
2019-02-20T07:23:13.689Z,812.00
2019-02-20T07:24:13.652Z,816.00
2019-02-20T07:25:13.651Z,816.00
2019-02-20T07:26:13.634Z,820.00
2019-02-20T07:27:13.590Z,824.00
2019-02-20T07:28:14.287Z,820.00
2019-02-20T07:29:13.544Z,816.00
2019-02-20T07:30:13.539Z,804.00
2019-02-20T07:31:13.497Z,780.00
2019-02-20T07:32:13.479Z,764.00
2019-02-20T07:33:13.481Z,760.00
2019-02-20T07:34:13.434Z,756.00
2019-02-20T07:35:13.416Z,768.00
2019-02-20T07:36:13.398Z,776.00
2019-02-20T07:37:13.375Z,788.00
2019-02-20T07:38:13.380Z,812.00
2019-02-20T07:39:13.332Z,836.00
2019-02-20T07:40:13.315Z,884.00
2019-02-20T07:41:13.295Z,952.00
2019-02-20T07:42:13.265Z,1000.00
2019-02-20T07:43:13.242Z,1016.00
2019-02-20T07:44:13.244Z,1016.00
2019-02-20T07:45:13.206Z,1036.00
2019-02-20T07:46:13.179Z,1048.00
2019-02-20T07:47:13.171Z,1068.00
2019-02-20T07:48:13.149Z,1072.00
2019-02-20T07:49:13.114Z,1076.00
2019-02-20T07:50:13.094Z,1100.00
2019-02-20T07:51:14.872Z,1128.00
2019-02-20T07:52:13.052Z,1140.00
2019-02-20T07:53:13.050Z,1176.00
2019-02-20T07:54:13.015Z,1224.00
2019-02-20T07:55:13.853Z,1276.00
2019-02-20T07:56:12.972Z,1352.00
2019-02-20T07:57:12.968Z,1472.00
2019-02-20T07:58:12.923Z,1624.00
2019-02-20T07:59:12.896Z,1748.00
2019-02-20T08:00:12.898Z,1928.00
2019-02-20T08:01:12.858Z,2156.00
2019-02-20T08:02:12.848Z,2408.00
2019-02-20T08:03:12.818Z,2616.00
2019-02-20T08:04:12.791Z,2716.00
2019-02-20T08:05:12.802Z,2756.00
2019-02-20T08:06:12.778Z,2824.00
2019-02-20T08:07:12.729Z,2868.00
2019-02-20T08:08:12.735Z,2880.00
2019-02-20T08:09:12.694Z,2836.00
2019-02-20T08:10:13.295Z,2748.00
2019-02-20T08:11:12.648Z,2724.00
2019-02-20T08:12:12.625Z,2728.00
2019-02-20T08:13:12.638Z,2676.00
2019-02-20T08:14:12.583Z,2616.00
2019-02-20T08:15:12.572Z,2468.00
2019-02-20T08:16:12.534Z,2372.00
2019-02-20T08:17:12.534Z,2380.00
2019-02-20T08:18:13.294Z,2376.00
2019-02-20T08:19:12.495Z,2312.00
2019-02-20T08:20:12.450Z,2256.00
2019-02-20T08:21:12.438Z,2200.00
2019-02-20T08:22:12.409Z,2132.00
2019-02-20T08:23:14.294Z,2132.00
2019-02-20T08:24:12.370Z,2116.00
2019-02-20T08:25:12.363Z,2116.00
2019-02-20T08:26:12.332Z,2124.00
2019-02-20T08:27:12.305Z,2128.00
2019-02-20T08:28:12.295Z,2128.00
2019-02-20T08:29:12.285Z,2168.00
2019-02-20T08:30:12.258Z,2280.00
2019-02-20T08:31:12.226Z,2468.00
2019-02-20T08:32:12.203Z,2616.00
2019-02-20T08:33:12.179Z,2728.00
2019-02-20T08:34:12.168Z,2960.00
2019-02-20T08:35:12.159Z,3160.00
2019-02-20T08:36:12.126Z,3292.00
2019-02-20T08:37:12.101Z,3300.00
2019-02-20T08:38:12.081Z,3252.00
2019-02-20T08:39:12.065Z,3300.00
2019-02-20T08:40:12.037Z,3340.00
2019-02-20T08:41:12.044Z,3372.00
2019-02-20T08:42:12.006Z,3448.00
2019-02-20T08:43:11.978Z,3544.00
2019-02-20T08:44:11.961Z,3664.00
2019-02-20T08:45:11.937Z,3820.00
2019-02-20T08:46:12.833Z,3936.00
2019-02-20T08:47:11.898Z,4056.00
2019-02-20T08:48:11.866Z,4060.00
2019-02-20T08:49:11.854Z,4004.00
2019-02-20T08:50:11.828Z,3976.00
2019-02-20T08:51:11.812Z,4084.00
2019-02-20T08:52:12.798Z,4220.00
2019-02-20T08:53:11.769Z,4356.00
2019-02-20T08:54:11.749Z,4532.00
2019-02-20T08:55:11.721Z,4616.00
2019-02-20T08:56:11.707Z,4672.00
2019-02-20T08:57:11.686Z,4748.00
2019-02-20T08:58:11.685Z,4660.00
2019-02-20T08:59:11.653Z,4588.00
2019-02-20T09:00:11.654Z,4600.00
2019-02-20T09:01:11.609Z,4652.00
2019-02-20T09:02:11.593Z,4660.00
2019-02-20T09:03:11.559Z,4656.00
2019-02-20T09:04:11.547Z,4660.00
2019-02-20T09:05:11.536Z,4676.00
2019-02-20T09:06:11.503Z,4648.00
2019-02-20T09:07:11.485Z,4616.00
2019-02-20T09:08:11.470Z,4592.00
2019-02-20T09:09:11.449Z,4648.00
2019-02-20T09:10:11.463Z,4672.00
2019-02-20T09:11:11.409Z,4640.00
2019-02-20T09:12:12.304Z,4616.00
2019-02-20T09:13:12.302Z,4712.00
2019-02-20T09:14:11.353Z,4792.00
2019-02-20T09:15:11.323Z,4792.00
2019-02-20T09:16:11.321Z,4808.00
2019-02-20T09:17:11.316Z,4808.00
2019-02-20T09:18:11.264Z,4772.00
2019-02-20T09:19:11.245Z,4704.00
2019-02-20T09:20:11.223Z,4700.00
2019-02-20T09:21:11.208Z,4732.00
2019-02-20T09:22:11.185Z,4732.00
2019-02-20T09:23:11.182Z,4852.00
2019-02-20T09:24:11.147Z,4676.00
2019-02-20T09:25:19.627Z,4648.00
2019-02-20T09:26:11.111Z,4608.00
2019-02-20T09:27:11.100Z,4612.00
2019-02-20T09:28:11.070Z,4588.00
2019-02-20T09:29:11.067Z,4624.00
2019-02-20T09:30:11.026Z,4568.00
2019-02-20T09:31:11.025Z,4376.00
2019-02-20T09:32:10.993Z,4076.00
2019-02-20T09:33:10.985Z,4064.00
2019-02-20T09:34:10.962Z,4016.00
2019-02-20T09:35:10.924Z,3644.00
2019-02-20T09:36:10.921Z,3660.00
2019-02-20T09:37:10.895Z,3552.00
2019-02-20T09:38:10.887Z,3452.00
2019-02-20T09:39:12.806Z,3204.00
2019-02-20T09:40:10.829Z,3000.00
2019-02-20T09:41:10.809Z,3116.00
2019-02-20T09:42:10.791Z,3368.00
2019-02-20T09:43:10.773Z,3720.00
2019-02-20T09:44:10.768Z,4092.00
2019-02-20T09:45:10.730Z,4428.00
2019-02-20T09:46:10.709Z,4796.00
2019-02-20T09:47:10.691Z,5160.00
2019-02-20T09:48:10.699Z,5272.00
2019-02-20T09:49:10.662Z,5212.00
2019-02-20T09:50:10.629Z,5176.00
2019-02-20T09:51:10.616Z,4948.00
2019-02-20T09:52:10.619Z,4780.00
2019-02-20T09:53:10.591Z,4572.00
2019-02-20T09:54:10.558Z,4356.00
2019-02-20T09:55:10.535Z,4176.00
2019-02-20T09:56:10.535Z,3972.00
2019-02-20T09:57:10.532Z,3812.00
2019-02-20T09:58:10.475Z,3548.00
2019-02-20T09:59:10.465Z,3392.00
2019-02-20T10:00:10.467Z,3644.00
2019-02-20T10:01:10.417Z,3472.00
2019-02-20T10:02:10.417Z,3540.00
2019-02-20T10:03:10.386Z,3368.00
2019-02-20T10:04:10.358Z,3464.00
2019-02-20T10:05:10.339Z,3292.00
2019-02-20T10:06:10.354Z,3320.00
2019-02-20T10:07:10.306Z,3352.00
2019-02-20T10:08:10.277Z,3424.00
2019-02-20T10:09:10.266Z,3464.00
2019-02-20T10:10:10.249Z,3332.00
2019-02-20T10:11:10.244Z,3324.00
2019-02-20T10:12:10.206Z,3564.00
2019-02-20T10:13:11.580Z,3956.00
2019-02-20T10:14:10.166Z,4104.00
2019-02-20T10:15:10.151Z,4284.00
2019-02-20T10:16:10.134Z,4608.00
2019-02-20T10:17:10.105Z,5000.00
2019-02-20T10:18:12.079Z,5596.00
2019-02-20T10:19:10.084Z,6304.00
2019-02-20T10:20:10.868Z,6960.00
2019-02-20T10:21:10.035Z,7588.00
2019-02-20T10:22:10.007Z,8152.00
2019-02-20T10:23:09.988Z,8208.00
2019-02-20T10:24:10.003Z,8320.00
2019-02-20T10:25:09.950Z,8696.00
2019-02-20T10:26:09.936Z,8944.00
2019-02-20T10:27:09.941Z,9192.00
2019-02-20T10:28:09.896Z,9324.00
2019-02-20T10:29:09.888Z,9428.00
2019-02-20T10:30:09.874Z,9640.00
2019-02-20T10:31:09.841Z,9860.00
2019-02-20T10:32:09.821Z,9784.00
2019-02-20T10:33:09.830Z,9372.00
2019-02-20T10:34:11.172Z,9068.00
2019-02-20T10:35:09.784Z,8636.00
2019-02-20T10:36:09.760Z,8532.00
2019-02-20T10:37:09.730Z,8272.00
2019-02-20T10:38:09.714Z,7796.00
2019-02-20T10:39:09.693Z,7836.00
2019-02-20T10:40:09.690Z,7492.00
2019-02-20T10:41:09.655Z,7588.00
2019-02-20T10:42:09.636Z,7380.00
2019-02-20T10:43:09.624Z,7648.00
2019-02-20T10:44:09.620Z,7828.00
2019-02-20T10:45:09.583Z,7748.00
2019-02-20T10:46:09.567Z,7936.00
2019-02-20T10:47:09.555Z,8580.00
2019-02-20T10:48:09.532Z,8432.00
2019-02-20T10:49:09.541Z,8344.00
2019-02-20T10:50:09.495Z,8764.00
2019-02-20T10:51:09.476Z,8676.00
2019-02-20T10:52:09.455Z,7516.00
2019-02-20T10:53:09.439Z,8788.00
2019-02-20T10:54:09.422Z,6500.00
2019-02-20T10:55:11.206Z,7036.00
2019-02-20T10:56:09.841Z,6932.00
2019-02-20T10:57:09.370Z,5700.00
2019-02-20T10:58:09.351Z,5760.00
2019-02-20T10:59:09.326Z,6820.00
2019-02-20T11:00:09.321Z,6468.00
2019-02-20T11:01:09.315Z,6740.00
2019-02-20T11:02:09.286Z,7760.00
2019-02-20T11:03:09.264Z,5976.00
2019-02-20T11:04:09.250Z,5808.00
2019-02-20T11:05:09.237Z,6940.00
2019-02-20T11:06:09.234Z,7928.00
2019-02-20T11:07:09.189Z,7748.00
2019-02-20T11:08:09.178Z,6996.00
2019-02-20T11:09:09.161Z,7056.00
2019-02-20T11:10:09.143Z,7888.00
2019-02-20T11:11:09.146Z,7500.00
2019-02-20T11:12:09.110Z,7668.00
2019-02-20T11:13:09.105Z,7532.00
2019-02-20T11:14:09.083Z,8128.00
2019-02-20T11:15:09.059Z,9376.00
2019-02-20T11:16:09.041Z,10292.00
2019-02-20T11:17:09.016Z,11264.00
2019-02-20T11:18:09.007Z,12140.00
2019-02-20T11:19:09.004Z,12440.00
2019-02-20T11:20:08.969Z,11916.00
2019-02-20T11:21:08.959Z,11748.00
2019-02-20T11:22:08.939Z,11224.00
2019-02-20T11:23:08.920Z,10940.00
2019-02-20T11:24:08.918Z,11280.00
2019-02-20T11:25:08.894Z,11496.00
2019-02-20T11:26:08.870Z,11100.00
2019-02-20T11:27:08.852Z,9852.00
2019-02-20T11:28:08.847Z,10412.00
2019-02-20T11:29:08.827Z,10720.00
2019-02-20T11:30:08.827Z,10212.00
2019-02-20T11:31:08.789Z,9776.00
2019-02-20T11:32:08.791Z,12684.00
2019-02-20T11:33:08.751Z,10864.00
2019-02-20T11:34:08.742Z,10008.00
2019-02-20T11:35:08.743Z,10240.00
2019-02-20T11:36:08.715Z,9784.00
2019-02-20T11:37:08.698Z,9004.00
2019-02-20T11:38:08.681Z,8172.00
2019-02-20T11:39:08.681Z,7692.00
2019-02-20T11:40:08.659Z,7032.00
2019-02-20T11:41:09.333Z,6952.00
2019-02-20T11:42:08.636Z,7408.00
2019-02-20T11:43:08.622Z,7200.00
2019-02-20T11:44:08.588Z,7100.00
2019-02-20T11:45:08.573Z,7856.00
2019-02-20T11:46:08.555Z,8276.00
2019-02-20T11:47:08.555Z,8988.00
2019-02-20T11:48:08.530Z,9044.00
2019-02-20T11:49:09.381Z,8788.00
2019-02-20T11:50:08.496Z,8496.00
2019-02-20T11:51:08.476Z,8692.00
2019-02-20T11:52:08.481Z,9188.00
2019-02-20T11:53:08.444Z,10176.00
2019-02-20T11:54:08.450Z,10596.00
2019-02-20T11:55:08.410Z,11168.00
2019-02-20T11:56:08.394Z,10364.00
2019-02-20T11:57:08.382Z,10448.00
2019-02-20T11:58:08.359Z,11204.00
2019-02-20T11:59:08.362Z,11264.00
2019-02-20T12:00:08.325Z,12184.00
2019-02-20T12:01:08.315Z,11728.00
2019-02-20T12:02:08.303Z,11592.00
2019-02-20T12:03:08.887Z,11080.00
2019-02-20T12:04:08.265Z,11300.00
2019-02-20T12:05:08.268Z,10768.00
2019-02-20T12:06:08.235Z,10480.00
2019-02-20T12:07:08.217Z,10452.00
2019-02-20T12:08:08.203Z,10476.00
2019-02-20T12:09:08.190Z,10124.00
2019-02-20T12:10:08.193Z,10176.00
2019-02-20T12:11:08.156Z,10040.00
2019-02-20T12:12:09.422Z,9992.00
2019-02-20T12:13:08.123Z,9908.00
2019-02-20T12:14:08.136Z,10220.00
2019-02-20T12:15:08.122Z,10400.00
2019-02-20T12:16:08.087Z,9884.00
2019-02-20T12:17:08.068Z,9348.00
2019-02-20T12:18:08.045Z,9732.00
2019-02-20T12:19:08.039Z,9684.00
2019-02-20T12:20:08.013Z,10168.00
2019-02-20T12:21:08.023Z,9868.00
2019-02-20T12:22:07.997Z,8828.00
2019-02-20T12:23:07.974Z,8296.00
2019-02-20T12:24:07.951Z,7848.00
2019-02-20T12:25:07.938Z,7720.00
2019-02-20T12:26:07.946Z,7352.00
2019-02-20T12:27:07.906Z,7028.00
2019-02-20T12:28:07.905Z,7288.00
2019-02-20T12:29:07.879Z,7592.00
2019-02-20T12:30:07.863Z,8216.00
2019-02-20T12:31:07.848Z,9160.00
2019-02-20T12:32:07.850Z,9612.00
2019-02-20T12:33:07.813Z,9592.00
2019-02-20T12:34:07.796Z,9280.00
2019-02-20T12:35:08.350Z,8840.00
2019-02-20T12:36:07.759Z,8140.00
2019-02-20T12:37:07.770Z,7656.00
2019-02-20T12:38:07.755Z,7484.00
2019-02-20T12:39:07.714Z,7200.00
2019-02-20T12:40:07.695Z,8716.00
2019-02-20T12:41:07.684Z,7964.00
2019-02-20T12:42:07.675Z,12708.00